createdAt,value
2018-11-11T00:00:08.404Z,85.10
2018-11-11T00:02:36.638Z,84.40
2018-11-11T00:05:05.451Z,84.60
2018-11-11T00:07:33.694Z,83.50
2018-11-11T00:10:01.975Z,82.30
2018-11-11T00:12:30.180Z,82.20
2018-11-11T00:14:58.398Z,82.30
2018-11-11T00:17:26.609Z,81.90
2018-11-11T00:19:54.857Z,83.70
2018-11-11T00:22:23.066Z,84.50
2018-11-11T00:24:51.280Z,84.40
2018-11-11T00:27:19.533Z,84.10
2018-11-11T00:29:47.743Z,84.30
2018-11-11T00:32:15.941Z,83.40
2018-11-11T00:34:44.142Z,82.50
2018-11-11T00:37:12.352Z,82.70
2018-11-11T00:39:40.638Z,83.60
2018-11-11T00:42:08.758Z,83.60
2018-11-11T00:44:36.973Z,84.20
2018-11-11T00:47:05.210Z,83.90
2018-11-11T00:49:33.435Z,83.00
2018-11-11T00:52:01.649Z,82.60
2018-11-11T00:54:29.846Z,82.10
2018-11-11T00:56:58.078Z,82.30
2018-11-11T00:59:26.295Z,81.00
2018-11-11T01:01:54.489Z,80.50
2018-11-11T01:04:22.694Z,80.40
2018-11-11T01:06:50.939Z,79.20
2018-11-11T01:09:19.170Z,79.00
2018-11-11T01:11:47.425Z,79.20
2018-11-11T01:14:15.720Z,78.30
2018-11-11T01:16:44.280Z,78.20
2018-11-11T01:19:12.570Z,78.00
2018-11-11T01:21:40.771Z,79.20
2018-11-11T01:24:08.991Z,80.60
2018-11-11T01:26:37.260Z,82.00
2018-11-11T01:29:05.802Z,82.70
2018-11-11T01:31:34.073Z,82.40
2018-11-11T01:34:02.420Z,81.70
2018-11-11T01:36:30.667Z,80.90
2018-11-11T01:38:58.929Z,79.90
2018-11-11T01:41:27.257Z,80.10
2018-11-11T01:43:55.493Z,79.60
2018-11-11T01:46:23.709Z,79.60
2018-11-11T01:48:51.988Z,79.70
2018-11-11T01:51:20.193Z,79.40
2018-11-11T01:53:48.457Z,79.30
2018-11-11T01:56:16.711Z,79.00
2018-11-11T01:58:44.971Z,78.70
2018-11-11T02:01:13.197Z,78.60
2018-11-11T02:03:41.469Z,78.50
2018-11-11T02:06:09.706Z,78.60
2018-11-11T02:08:37.969Z,78.30
2018-11-11T02:11:06.326Z,78.10
2018-11-11T02:13:34.587Z,78.20
2018-11-11T02:16:02.866Z,78.60
2018-11-11T02:18:31.110Z,78.00
2018-11-11T02:20:59.444Z,78.40
2018-11-11T02:23:27.658Z,78.60
2018-11-11T02:25:55.876Z,78.20
2018-11-11T02:28:24.120Z,78.60
2018-11-11T02:30:52.382Z,78.60
2018-11-11T02:33:20.614Z,79.40
2018-11-11T02:35:48.854Z,79.70
2018-11-11T02:38:17.114Z,79.20
2018-11-11T02:40:45.387Z,79.00
2018-11-11T02:43:13.644Z,79.00
2018-11-11T02:45:41.882Z,79.00
2018-11-11T02:48:10.105Z,79.00
2018-11-11T02:50:38.371Z,78.10
2018-11-11T02:53:06.594Z,78.10
2018-11-11T02:55:34.826Z,78.70
2018-11-11T02:58:03.057Z,77.80
2018-11-11T03:00:31.306Z,77.30
2018-11-11T03:02:59.534Z,77.00
2018-11-11T03:05:27.785Z,77.60
2018-11-11T03:07:55.973Z,77.00
2018-11-11T03:10:24.234Z,77.50
2018-11-11T03:12:52.463Z,79.40
2018-11-11T03:15:20.807Z,79.60
2018-11-11T03:17:49.032Z,79.70
2018-11-11T03:20:17.620Z,79.70
2018-11-11T03:22:45.818Z,80.30
2018-11-11T03:25:15.198Z,80.30
2018-11-11T03:27:43.566Z,80.60
2018-11-11T03:30:14.013Z,79.80
2018-11-11T03:32:42.194Z,81.50
2018-11-11T03:35:11.549Z,82.20
2018-11-11T03:37:40.000Z,81.80
2018-11-11T03:40:10.590Z,84.40
2018-11-11T03:42:38.805Z,85.30
2018-11-11T03:45:08.939Z,86.10
2018-11-11T03:47:37.144Z,85.70
2018-11-11T03:50:06.546Z,85.30
2018-11-11T03:52:34.766Z,84.40
2018-11-11T03:55:02.932Z,84.80
2018-11-11T03:57:31.158Z,86.00
2018-11-11T03:59:59.422Z,85.40
2018-11-11T04:02:27.616Z,86.10
2018-11-11T04:04:55.798Z,85.90
2018-11-11T04:07:23.982Z,85.50
2018-11-11T04:09:52.175Z,85.20
2018-11-11T04:12:20.551Z,85.00
2018-11-11T04:14:48.752Z,85.20
2018-11-11T04:17:16.929Z,83.50
2018-11-11T04:19:45.131Z,83.00
2018-11-11T04:22:18.695Z,82.50
2018-11-11T04:24:48.814Z,82.50
2018-11-11T04:27:17.142Z,83.00
2018-11-11T04:29:45.373Z,83.20
2018-11-11T04:32:13.726Z,83.10
2018-11-11T04:34:42.726Z,82.80
2018-11-11T04:37:11.340Z,83.50
2018-11-11T04:39:40.214Z,83.40
2018-11-11T04:42:08.426Z,84.00
2018-11-11T04:44:36.702Z,85.00
2018-11-11T04:47:04.938Z,84.70
2018-11-11T04:49:33.146Z,84.70
2018-11-11T04:52:01.394Z,85.70
2018-11-11T04:54:29.668Z,85.80
2018-11-11T04:56:57.922Z,86.20
2018-11-11T04:59:26.118Z,86.40
2018-11-11T05:01:54.327Z,86.70
2018-11-11T05:04:22.592Z,87.40
2018-11-11T05:06:50.804Z,88.40
2018-11-11T05:09:19.084Z,88.90
2018-11-11T05:11:47.418Z,88.60
2018-11-11T05:14:15.666Z,88.60
2018-11-11T05:16:43.877Z,87.70
2018-11-11T05:19:12.160Z,87.30
2018-11-11T05:21:40.472Z,86.60
2018-11-11T05:24:08.714Z,85.80
2018-11-11T05:26:36.946Z,85.60
2018-11-11T05:29:05.314Z,86.00
2018-11-11T05:31:33.510Z,85.10
2018-11-11T05:34:01.787Z,85.20
2018-11-11T05:36:30.043Z,85.00
2018-11-11T05:38:58.481Z,84.40
2018-11-11T05:41:26.722Z,84.40
2018-11-11T05:43:55.010Z,83.70
2018-11-11T05:46:23.418Z,82.50
2018-11-11T05:48:51.681Z,82.90
2018-11-11T05:51:19.941Z,84.30
2018-11-11T05:53:48.180Z,85.00
2018-11-11T05:56:16.405Z,85.40
2018-11-11T05:58:44.677Z,85.10
2018-11-11T06:01:12.866Z,85.20
2018-11-11T06:03:41.102Z,85.10
2018-11-11T06:06:09.378Z,83.90
2018-11-11T06:08:37.874Z,82.70
2018-11-11T06:11:06.145Z,82.90
2018-11-11T06:13:34.431Z,82.60
2018-11-11T06:16:02.687Z,81.20
2018-11-11T06:18:30.911Z,80.20
2018-11-11T06:20:59.115Z,81.80
2018-11-11T06:23:27.328Z,82.60
2018-11-11T06:25:55.630Z,83.70
2018-11-11T06:28:23.874Z,83.60
2018-11-11T06:30:52.156Z,83.90
2018-11-11T06:33:20.424Z,82.60
2018-11-11T06:35:48.686Z,82.90
2018-11-11T06:38:16.977Z,83.30
2018-11-11T06:40:45.279Z,83.60
2018-11-11T06:43:13.555Z,82.30
2018-11-11T06:45:41.826Z,83.70
2018-11-11T06:48:10.130Z,84.90
2018-11-11T06:50:38.382Z,85.00
2018-11-11T06:53:06.636Z,84.70
2018-11-11T06:55:34.924Z,82.90
2018-11-11T06:58:03.221Z,82.40
2018-11-11T07:00:31.471Z,82.60
2018-11-11T07:03:11.032Z,82.90
2018-11-11T07:05:39.288Z,82.80
2018-11-11T07:08:07.561Z,82.90
2018-11-11T07:10:35.934Z,81.90
2018-11-11T07:13:04.219Z,80.60
2018-11-11T07:15:32.510Z,80.20
2018-11-11T07:18:00.768Z,78.60
2018-11-11T07:20:29.047Z,77.80
2018-11-11T07:22:57.327Z,77.20
2018-11-11T07:25:25.611Z,76.90
2018-11-11T07:27:53.978Z,76.10
2018-11-11T07:30:22.265Z,75.00
2018-11-11T07:32:50.550Z,76.00
2018-11-11T07:35:18.813Z,75.90
2018-11-11T07:37:47.118Z,75.70
2018-11-11T07:40:16.176Z,75.10
2018-11-11T07:42:44.441Z,75.60
2018-11-11T07:45:12.769Z,73.40
2018-11-11T07:47:41.174Z,73.60
2018-11-11T07:50:10.395Z,73.30
2018-11-11T07:52:38.685Z,73.70
2018-11-11T07:55:08.479Z,73.30
2018-11-11T07:57:36.700Z,73.30
2018-11-11T08:00:07.168Z,72.00
2018-11-11T08:02:35.626Z,71.20
2018-11-11T08:05:04.080Z,69.30
2018-11-11T08:07:32.355Z,72.00
2018-11-11T08:10:00.629Z,72.30
2018-11-11T08:12:29.126Z,70.30
2018-11-11T08:14:57.450Z,72.60
2018-11-11T08:17:25.736Z,73.70
2018-11-11T08:19:54.014Z,73.00
2018-11-11T08:22:22.307Z,73.20
2018-11-11T08:24:50.575Z,72.10
2018-11-11T08:27:18.854Z,71.70
2018-11-11T08:29:47.194Z,71.00
2018-11-11T08:32:15.514Z,71.10
2018-11-11T08:34:43.687Z,71.90
2018-11-11T08:37:11.974Z,72.70
2018-11-11T08:39:40.238Z,73.90
2018-11-11T08:42:08.496Z,73.60
2018-11-11T08:44:36.911Z,71.90
2018-11-11T08:47:05.768Z,70.60
2018-11-11T08:49:34.070Z,70.10
2018-11-11T08:52:02.297Z,69.50
2018-11-11T08:54:32.943Z,70.00
2018-11-11T08:57:01.152Z,68.60
2018-11-11T08:59:29.407Z,67.10
2018-11-11T09:01:57.690Z,67.00
2018-11-11T09:04:25.961Z,67.20
2018-11-11T09:06:54.257Z,65.60
2018-11-11T09:09:22.518Z,65.50
2018-11-11T09:11:50.901Z,65.80
2018-11-11T09:14:19.209Z,64.00
2018-11-11T09:16:47.463Z,64.80
2018-11-11T09:19:15.714Z,64.20
2018-11-11T09:21:44.025Z,64.70
2018-11-11T09:24:12.295Z,64.30
2018-11-11T09:26:40.671Z,64.30
2018-11-11T09:29:08.923Z,64.90
2018-11-11T09:31:37.222Z,63.50
2018-11-11T09:34:05.473Z,63.20
2018-11-11T09:36:33.731Z,62.80
2018-11-11T09:39:02.101Z,63.70
2018-11-11T09:41:30.344Z,64.30
2018-11-11T09:43:58.579Z,64.70
2018-11-11T09:46:26.867Z,64.70
2018-11-11T09:48:55.246Z,65.60
2018-11-11T09:51:23.616Z,66.30
2018-11-11T09:53:51.961Z,65.50
2018-11-11T09:56:20.222Z,65.10
2018-11-11T09:58:48.614Z,65.60
2018-11-11T10:01:16.848Z,65.50
2018-11-11T10:03:50.040Z,66.00
2018-11-11T10:06:28.139Z,66.10
2018-11-11T10:09:59.247Z,67.10
2018-11-11T10:12:36.306Z,67.00
2018-11-11T10:17:15.544Z,67.50
2018-11-11T10:20:04.363Z,67.90
2018-11-11T10:22:36.623Z,67.70
2018-11-11T10:25:15.321Z,71.20
2018-11-11T10:28:47.772Z,72.70
2018-11-11T10:31:21.279Z,74.20
2018-11-11T10:33:55.120Z,76.40
2018-11-11T10:36:59.481Z,78.50
2018-11-11T10:41:35.264Z,80.00
2018-11-11T10:44:05.594Z,80.60
2018-11-11T10:47:06.894Z,81.50
2018-11-11T10:49:44.598Z,81.90
2018-11-11T10:52:12.854Z,81.10
2018-11-11T10:54:41.303Z,83.20
2018-11-11T10:57:09.986Z,84.20
2018-11-11T10:59:38.311Z,84.40
2018-11-11T11:02:11.846Z,82.60
2018-11-11T11:04:45.591Z,80.20
2018-11-11T11:07:13.894Z,79.30
2018-11-11T11:09:42.208Z,78.20
2018-11-11T11:12:10.547Z,77.30
2018-11-11T11:14:38.835Z,76.00
2018-11-11T11:17:07.244Z,75.70
2018-11-11T11:19:35.687Z,75.40
2018-11-11T11:22:04.011Z,75.90
2018-11-11T11:24:32.384Z,75.40
2018-11-11T11:27:00.818Z,74.60
2018-11-11T11:29:29.146Z,73.00
2018-11-11T11:31:57.560Z,72.70
2018-11-11T11:34:25.878Z,73.00
2018-11-11T11:36:54.227Z,72.60
2018-11-11T11:39:22.565Z,72.90
2018-11-11T11:41:50.842Z,72.70
2018-11-11T11:44:19.187Z,72.10
2018-11-11T11:46:47.444Z,71.30
2018-11-11T11:49:15.722Z,71.00
2018-11-11T11:51:44.004Z,70.90
2018-11-11T11:54:12.297Z,71.90
2018-11-11T11:56:40.555Z,72.20
2018-11-11T11:59:08.830Z,70.00
2018-11-11T12:01:37.114Z,70.30
2018-11-11T12:04:05.732Z,69.50
2018-11-11T12:06:34.083Z,69.20
2018-11-11T12:09:02.573Z,69.60
2018-11-11T12:11:30.734Z,69.80
2018-11-11T12:13:58.987Z,69.00
2018-11-11T12:16:27.245Z,68.70
2018-11-11T12:18:55.454Z,69.30
2018-11-11T12:21:23.999Z,68.80
2018-11-11T12:23:52.225Z,67.90
2018-11-11T12:26:20.575Z,67.90
2018-11-11T12:28:49.031Z,67.30
2018-11-11T12:31:17.254Z,67.90
2018-11-11T12:33:45.558Z,67.20
2018-11-11T12:36:13.795Z,67.30
2018-11-11T12:38:42.103Z,66.80
2018-11-11T12:41:10.362Z,66.50
2018-11-11T12:43:38.610Z,66.50
2018-11-11T12:46:06.911Z,66.40
2018-11-11T12:48:35.190Z,67.30
2018-11-11T12:51:03.466Z,66.70
2018-11-11T12:53:31.739Z,66.60
2018-11-11T12:55:59.964Z,66.10
2018-11-11T12:58:28.215Z,65.90
2018-11-11T13:00:56.467Z,65.80
2018-11-11T13:03:24.715Z,66.30
2018-11-11T13:05:53.286Z,66.70
2018-11-11T13:08:21.573Z,66.60
2018-11-11T13:10:49.903Z,66.60
2018-11-11T13:13:24.842Z,67.10
2018-11-11T13:15:53.086Z,66.90
2018-11-11T13:18:21.452Z,66.50
2018-11-11T13:20:49.748Z,66.40
2018-11-11T13:23:18.045Z,66.40
2018-11-11T13:25:46.323Z,65.90
2018-11-11T13:28:14.598Z,65.10
2018-11-11T13:30:42.865Z,64.80
2018-11-11T13:33:11.185Z,64.80
2018-11-11T13:35:39.466Z,63.90
2018-11-11T13:38:07.923Z,64.00
2018-11-11T13:40:36.171Z,63.60
2018-11-11T13:43:04.521Z,63.40
2018-11-11T13:45:32.887Z,63.40
2018-11-11T13:48:01.171Z,63.40
2018-11-11T13:50:29.542Z,62.70
2018-11-11T13:52:57.854Z,62.40
2018-11-11T13:55:26.139Z,62.40
2018-11-11T13:57:54.471Z,62.50
2018-11-11T14:00:25.032Z,62.10
2018-11-11T14:02:53.307Z,61.60
2018-11-11T14:05:21.689Z,61.40
2018-11-11T14:07:49.974Z,61.50
2018-11-11T14:10:18.455Z,60.50
2018-11-11T14:12:46.756Z,60.40
2018-11-11T14:15:17.461Z,58.90
2018-11-11T14:17:46.442Z,58.60
2018-11-11T14:20:16.141Z,59.30
2018-11-11T14:22:45.458Z,59.10
2018-11-11T14:25:16.337Z,58.90
2018-11-11T14:27:44.897Z,59.50
2018-11-11T14:30:16.123Z,59.50
2018-11-11T14:32:44.662Z,59.80
2018-11-11T14:35:13.282Z,59.20
2018-11-11T14:37:41.976Z,57.30
2018-11-11T14:40:15.682Z,57.20
2018-11-11T14:42:44.078Z,57.50
2018-11-11T14:45:13.516Z,57.90
2018-11-11T14:47:42.629Z,58.30
2018-11-11T14:50:12.213Z,58.50
2018-11-11T14:52:40.950Z,58.80
2018-11-11T14:55:14.889Z,58.90
2018-11-11T14:57:43.223Z,58.70
2018-11-11T15:00:19.111Z,58.80
2018-11-11T15:02:50.799Z,58.80
2018-11-11T15:05:19.023Z,58.60
2018-11-11T15:07:47.387Z,59.00
2018-11-11T15:10:15.650Z,58.80
2018-11-11T15:12:43.956Z,58.90
2018-11-11T15:15:14.666Z,58.70
2018-11-11T15:17:43.483Z,58.70
2018-11-11T15:20:12.901Z,58.90
2018-11-11T15:22:41.144Z,59.10
2018-11-11T15:25:11.875Z,58.90
2018-11-11T15:27:40.878Z,59.10
2018-11-11T15:30:13.184Z,59.10
2018-11-11T15:32:41.714Z,59.40
2018-11-11T15:35:10.078Z,59.40
2018-11-11T15:37:38.832Z,59.40
2018-11-11T15:40:08.990Z,59.50
2018-11-11T15:42:37.329Z,59.30
2018-11-11T15:45:11.029Z,60.20
2018-11-11T15:47:39.600Z,60.00
2018-11-11T15:50:10.373Z,59.90
2018-11-11T15:52:38.594Z,60.00
2018-11-11T15:55:08.599Z,60.60
2018-11-11T15:57:37.050Z,61.20
2018-11-11T16:00:07.903Z,62.30
2018-11-11T16:02:36.495Z,62.60
2018-11-11T16:05:05.486Z,63.10
2018-11-11T16:07:33.860Z,64.00
2018-11-11T16:10:02.166Z,65.20
2018-11-11T16:12:30.753Z,65.70
2018-11-11T16:14:59.026Z,66.00
2018-11-11T16:17:27.359Z,66.90
2018-11-11T16:19:55.948Z,67.60
2018-11-11T16:22:24.224Z,68.80
2018-11-11T16:24:52.498Z,68.90
2018-11-11T16:27:20.821Z,69.70
2018-11-11T16:29:49.070Z,69.50
2018-11-11T16:32:17.387Z,69.50
2018-11-11T16:34:45.623Z,69.50
2018-11-11T16:37:13.914Z,69.40
2018-11-11T16:39:42.253Z,69.50
2018-11-11T16:42:10.437Z,70.00
2018-11-11T16:44:38.704Z,70.20
2018-11-11T16:47:07.299Z,70.40
2018-11-11T16:49:35.519Z,70.50
2018-11-11T16:52:03.759Z,70.70
2018-11-11T16:54:32.002Z,70.50
2018-11-11T16:57:00.203Z,70.40
2018-11-11T16:59:28.607Z,70.40
2018-11-11T17:01:56.983Z,70.90
2018-11-11T17:04:25.294Z,71.20
2018-11-11T17:06:53.502Z,73.60
2018-11-11T17:09:21.715Z,74.00
2018-11-11T17:11:50.005Z,74.00
2018-11-11T17:14:18.316Z,73.70
2018-11-11T17:16:46.617Z,73.90
2018-11-11T17:19:15.018Z,73.80
2018-11-11T17:21:43.443Z,74.80
2018-11-11T17:24:11.545Z,75.20
2018-11-11T17:26:39.915Z,75.90
2018-11-11T17:29:08.207Z,76.90
2018-11-11T17:31:37.435Z,76.50
2018-11-11T17:34:06.167Z,76.00
2018-11-11T17:36:34.457Z,75.70
2018-11-11T17:39:02.854Z,75.50
2018-11-11T17:41:31.161Z,75.30
2018-11-11T17:43:59.406Z,75.30
2018-11-11T17:46:27.667Z,75.40
2018-11-11T17:48:55.955Z,75.30
2018-11-11T17:51:24.254Z,75.90
2018-11-11T17:53:52.564Z,76.40
2018-11-11T17:56:20.811Z,76.80
2018-11-11T17:58:49.063Z,76.80
2018-11-11T18:01:18.413Z,77.10
2018-11-11T18:03:46.670Z,76.60
2018-11-11T18:06:14.901Z,76.40
2018-11-11T18:08:43.240Z,76.10
2018-11-11T18:11:11.516Z,76.00
2018-11-11T18:13:39.773Z,76.10
2018-11-11T18:16:07.995Z,75.90
2018-11-11T18:18:36.216Z,75.90
2018-11-11T18:21:04.488Z,76.70
2018-11-11T18:23:32.687Z,76.20
2018-11-11T18:26:00.944Z,76.60
2018-11-11T18:28:35.173Z,76.40
2018-11-11T18:31:03.572Z,76.50
2018-11-11T18:33:32.038Z,76.30
2018-11-11T18:36:00.298Z,76.40
2018-11-11T18:38:28.492Z,75.90
2018-11-11T18:40:56.822Z,76.80
2018-11-11T18:43:25.941Z,76.80
2018-11-11T18:45:54.231Z,77.00
2018-11-11T18:48:22.607Z,77.00
2018-11-11T18:50:50.875Z,77.10
2018-11-11T18:53:19.131Z,77.10
2018-11-11T18:55:47.398Z,77.20
2018-11-11T18:58:15.673Z,77.70
2018-11-11T19:00:44.082Z,77.60
2018-11-11T19:03:12.360Z,77.20
2018-11-11T19:05:40.638Z,77.40
2018-11-11T19:08:08.889Z,77.10
2018-11-11T19:10:37.244Z,77.40
2018-11-11T19:13:06.877Z,77.30
2018-11-11T19:15:35.177Z,76.80
2018-11-11T19:18:03.426Z,75.80
2018-11-11T19:20:31.716Z,75.40
2018-11-11T19:22:59.965Z,75.10
2018-11-11T19:25:29.335Z,74.70
2018-11-11T19:27:58.536Z,75.10
2018-11-11T19:30:27.536Z,75.00
2018-11-11T19:32:55.706Z,75.60
2018-11-11T19:35:24.047Z,76.10
2018-11-11T19:37:53.583Z,76.00
2018-11-11T19:40:22.979Z,76.20
2018-11-11T19:42:52.061Z,76.40
2018-11-11T19:45:21.759Z,76.50
2018-11-11T19:47:50.071Z,76.50
2018-11-11T19:50:19.709Z,76.30
2018-11-11T19:52:49.248Z,76.10
2018-11-11T19:55:18.362Z,76.00
2018-11-11T19:57:46.586Z,76.00
2018-11-11T20:00:17.475Z,75.40
2018-11-11T20:02:47.602Z,76.10
2018-11-11T20:05:16.460Z,76.30
2018-11-11T20:07:45.970Z,76.60
2018-11-11T20:10:16.100Z,76.00
2018-11-11T20:12:44.388Z,75.70
2018-11-11T20:15:14.088Z,75.70
2018-11-11T20:17:42.751Z,76.00
2018-11-11T20:20:13.525Z,76.60
2018-11-11T20:22:42.022Z,76.70
2018-11-11T20:25:11.726Z,76.70
2018-11-11T20:27:40.563Z,76.50
2018-11-11T20:30:16.510Z,76.30
2018-11-11T20:32:44.833Z,76.90
2018-11-11T20:35:15.319Z,76.90
2018-11-11T20:37:43.585Z,76.30
2018-11-11T20:40:13.190Z,76.00
2018-11-11T20:42:42.029Z,75.70
2018-11-11T20:45:11.186Z,77.20
2018-11-11T20:47:40.197Z,78.20
2018-11-11T20:50:10.663Z,78.70
2018-11-11T20:52:39.660Z,78.60
2018-11-11T20:55:08.582Z,78.70
2018-11-11T20:57:37.366Z,79.60
2018-11-11T21:00:08.108Z,79.50
2018-11-11T21:02:36.401Z,79.30
2018-11-11T21:05:05.166Z,79.50
2018-11-11T21:07:33.452Z,78.90
2018-11-11T21:10:01.699Z,79.60
2018-11-11T21:12:29.941Z,79.60
2018-11-11T21:14:58.132Z,79.90
2018-11-11T21:17:26.520Z,80.20
2018-11-11T21:19:54.615Z,79.80
2018-11-11T21:22:22.811Z,79.70
2018-11-11T21:24:51.034Z,79.00
2018-11-11T21:27:19.299Z,79.40
2018-11-11T21:29:47.602Z,79.20
2018-11-11T21:32:16.033Z,79.50
2018-11-11T21:34:44.298Z,79.60
2018-11-11T21:37:12.519Z,79.40
2018-11-11T21:39:40.769Z,79.20
2018-11-11T21:42:08.995Z,79.40
2018-11-11T21:44:37.441Z,79.70
2018-11-11T21:47:05.666Z,80.60
2018-11-11T21:49:33.903Z,80.00
2018-11-11T21:52:02.120Z,79.50
2018-11-11T21:54:30.389Z,79.80
2018-11-11T21:56:58.651Z,80.90
2018-11-11T21:59:26.875Z,81.10
2018-11-11T22:01:55.074Z,81.20
2018-11-11T22:04:23.313Z,81.00
2018-11-11T22:06:51.520Z,81.00
2018-11-11T22:09:19.764Z,80.90
2018-11-11T22:11:48.018Z,80.80
2018-11-11T22:14:16.228Z,80.70
2018-11-11T22:16:44.603Z,80.60
2018-11-11T22:19:13.002Z,80.80
2018-11-11T22:21:41.242Z,80.30
2018-11-11T22:24:09.486Z,80.40
2018-11-11T22:26:37.732Z,79.70
2018-11-11T22:29:06.004Z,79.90
2018-11-11T22:31:34.253Z,80.50
2018-11-11T22:34:02.517Z,80.40
2018-11-11T22:36:30.831Z,80.60
2018-11-11T22:38:59.097Z,79.60
2018-11-11T22:41:27.360Z,79.20
2018-11-11T22:43:55.651Z,79.20
2018-11-11T22:46:23.919Z,78.90
2018-11-11T22:48:52.219Z,78.40
2018-11-11T22:51:20.443Z,78.60
2018-11-11T22:53:48.738Z,79.60
2018-11-11T22:56:16.949Z,79.80
2018-11-11T22:58:45.223Z,79.30
2018-11-11T23:01:20.633Z,78.90
2018-11-11T23:03:49.343Z,78.90
2018-11-11T23:06:17.623Z,78.90
2018-11-11T23:08:46.388Z,78.80
2018-11-11T23:11:14.896Z,78.60
2018-11-11T23:13:43.125Z,78.30
2018-11-11T23:16:11.393Z,78.00
2018-11-11T23:18:39.554Z,78.10
2018-11-11T23:21:07.797Z,78.30
2018-11-11T23:23:36.030Z,78.20
2018-11-11T23:26:04.303Z,77.30
2018-11-11T23:28:32.611Z,77.20
2018-11-11T23:31:00.837Z,77.10
2018-11-11T23:33:29.060Z,77.70
2018-11-11T23:35:57.306Z,77.60
2018-11-11T23:38:25.511Z,77.90
2018-11-11T23:40:53.739Z,77.90
2018-11-11T23:43:21.931Z,79.20
2018-11-11T23:45:50.131Z,78.70
2018-11-11T23:48:18.318Z,78.60
2018-11-11T23:50:46.558Z,78.60
2018-11-11T23:53:14.793Z,78.70
2018-11-11T23:55:43.080Z,78.50
2018-11-11T23:58:11.274Z,78.10
